Terminal Aerodrome Forecast
Issued by NWS

Current Version | Previous Version | Graphics & Text | Print | Product List | Glossary On
Versions: 1 2 3 4 5 6 7 8 9 10 11 12 13 14 15 16 17 18 19 20 21 22 23 24 25
000
FTUS41 KRLX 041451 AAA
TAFCKB
TAF AMD
KCKB 041451Z 0415/0512 24003KT P6SM -SHRA SCT010 BKN025
      TEMPO 0415/0417 4SM SHRA BKN010
     FM041800 23006KT P6SM BKN040
     FM050100 25005KT 6SM SHRA BR VCTS BKN040CB
     FM050300 25004KT 3SM SHRA VCTS SCT010 OVC020CB=

USA.gov is the U.S. government's official web portal to all federal, state and local government web resources and services.